Time;durP1;ratioP1;P1;durP2;ratioP2;P2;SDS_P1;SDS_P2;PMS_P1;PMS_P2;Temp;Humidity;BMP_temperature;BMP_pressure;BME280_temperature;BME280_humidity;BME280_pressure;Samples;Min_cycle;Max_cycle;Signal;HPM_P1;HPM_P2
2021/08/07 00:01:27;;;;;;;0.80;0.73;;;;;;;18.31;100.00;-21178.47;5055030;28;20463;-71
2021/08/07 00:03:58;;;;;;;0.70;0.60;;;;;;;18.28;100.00;-21177.50;5055027;28;20502;-71
2021/08/07 00:06:33;;;;;;;0.70;0.70;;;;;;;18.23;100.00;-21176.28;5041210;28;20499;-71
2021/08/07 00:09:01;;;;;;;0.80;0.70;;;;;;;18.25;100.00;-21176.81;5035143;28;20488;-71
2021/08/07 00:11:29;;;;;;;0.80;0.70;;;;;;;18.25;100.00;-21176.81;5044305;28;20526;-71
2021/08/07 00:13:57;;;;;;;0.70;0.70;;;;;;;18.16;100.00;-21174.34;5041226;28;20429;-71
2021/08/07 00:16:25;;;;;;;0.80;0.70;;;;;;;18.13;100.00;-21173.41;5036882;28;20461;-71
2021/08/07 00:18:53;;;;;;;0.80;0.70;;;;;;;18.04;100.00;-21171.06;5054435;28;20424;-71
2021/08/07 00:21:22;;;;;;;0.80;0.70;;;;;;;18.06;100.00;-21171.63;5047309;28;20456;-72
2021/08/07 00:23:49;;;;;;;0.80;0.70;;;;;;;18.11;100.00;-21173.00;5034309;28;20447;-71
2021/08/07 00:26:17;;;;;;;0.70;0.60;;;;;;;18.03;100.00;-21170.78;5034233;28;20811;-71
2021/08/07 00:28:45;;;;;;;0.70;0.60;;;;;;;17.96;100.00;-21168.88;5034328;28;20466;-71
2021/08/07 00:31:13;;;;;;;0.70;0.60;;;;;;;17.90;100.00;-21167.38;5034053;28;20444;-71
2021/08/07 00:33:42;;;;;;;0.80;0.70;;;;;;;17.79;100.00;-21164.34;5034097;28;20539;-71
2021/08/07 00:36:11;;;;;;;0.70;0.60;;;;;;;17.68;100.00;-21161.34;5034294;28;20438;-71
2021/08/07 00:38:44;;;;;;;0.70;0.63;;;;;;;17.69;100.00;-21161.63;5034390;28;21032;-71
2021/08/07 00:41:11;;;;;;;0.70;0.60;;;;;;;17.60;100.00;-21159.28;5034021;28;20453;-71
2021/08/07 00:43:38;;;;;;;0.70;0.60;;;;;;;17.54;100.00;-21157.63;5033874;28;20571;-71
2021/08/07 00:46:15;;;;;;;0.70;0.70;;;;;;;17.39;100.00;-21153.78;5033799;28;20450;-71
2021/08/07 00:48:44;;;;;;;0.80;0.70;;;;;;;17.16;100.00;-21147.50;5033542;28;20472;-71
2021/08/07 00:51:13;;;;;;;0.90;0.90;;;;;;;16.95;100.00;-21141.72;5039763;28;20975;-71
2021/08/07 00:53:45;;;;;;;0.73;0.70;;;;;;;16.83;100.00;-21138.56;5038120;28;20876;-71
2021/08/07 00:56:34;;;;;;;0.80;0.70;;;;;;;16.84;100.00;-21138.97;5053880;28;20488;-71
2021/08/07 00:59:06;;;;;;;0.80;0.70;;;;;;;16.76;100.00;-21136.78;5038148;28;20425;-71
2021/08/07 01:01:42;;;;;;;0.70;0.70;;;;;;;16.77;100.00;-21137.06;5047663;28;20577;-71
2021/08/07 01:04:19;;;;;;;0.80;0.70;;;;;;;16.86;100.00;-21139.53;5033322;28;20439;-71
2021/08/07 01:06:56;;;;;;;0.70;0.67;;;;;;;16.92;100.00;-20916.38;5033807;28;20454;-71
2021/08/07 01:09:36;;;;;;;0.73;0.70;;;;;;;16.87;100.00;-20055.06;5035249;28;20469;-72
2021/08/07 01:12:13;;;;;;;0.70;0.70;;;;;;;16.81;100.00;-18793.22;5033403;28;20541;-71
2021/08/07 01:14:45;;;;;;;0.80;0.63;;;;;;;16.78;100.00;-17243.03;5035915;28;20436;-71
2021/08/07 01:17:24;;;;;;;0.73;0.70;;;;;;;16.91;100.00;-14983.22;5033287;28;20442;-71
2021/08/07 01:20:00;;;;;;;0.70;0.60;;;;;;;17.26;100.00;-15217.44;5032905;28;20436;-71
2021/08/07 01:22:34;;;;;;;0.70;0.60;;;;;;;17.59;100.00;-17812.63;5049715;28;20505;-71
2021/08/07 01:25:07;;;;;;;0.70;0.60;;;;;;;17.77;100.00;-20655.38;5053306;28;20435;-71
2021/08/07 01:27:40;;;;;;;0.80;0.70;;;;;;;17.80;100.00;-21164.78;5053130;28;20436;-71
2021/08/07 01:30:22;;;;;;;0.80;0.70;;;;;;;17.80;100.00;-21164.63;5053216;28;20423;-71
2021/08/07 01:32:54;;;;;;;0.70;0.60;;;;;;;17.83;100.00;-21165.59;5036975;28;20551;-71
2021/08/07 01:35:25;;;;;;;0.70;0.70;;;;;;;17.84;100.00;-21165.88;5016593;28;20447;-71
2021/08/07 01:37:53;;;;;;;0.80;0.70;;;;;;;17.74;100.00;-21163.13;5032546;28;20492;-71
2021/08/07 01:40:30;;;;;;;0.80;0.70;;;;;;;17.66;100.00;-21160.94;5033155;28;20435;-71
2021/08/07 01:43:18;;;;;;;0.70;0.60;;;;;;;17.58;100.00;-21158.72;5033988;28;20870;-71
2021/08/07 01:45:49;;;;;;;0.80;0.70;;;;;;;17.66;100.00;-21160.94;5033035;28;20946;-71
2021/08/07 01:48:30;;;;;;;0.80;0.70;;;;;;;17.68;100.00;-21161.47;5032769;28;20472;-71
2021/08/07 01:51:12;;;;;;;0.70;0.60;;;;;;;17.63;100.00;-21160.25;5017765;28;20971;-70
2021/08/07 01:53:47;;;;;;;0.70;0.60;;;;;;;17.66;100.00;-21160.78;5032521;28;21026;-71
2021/08/07 01:56:19;;;;;;;0.80;0.80;;;;;;;17.66;100.00;-21160.78;5032365;28;20443;-71
2021/08/07 01:58:56;;;;;;;0.80;0.70;;;;;;;17.51;100.00;-21156.94;5034265;28;20936;-71
2021/08/07 02:01:29;;;;;;;0.80;0.70;;;;;;;17.51;100.00;-21156.81;5037091;28;20461;-71
2021/08/07 02:04:00;;;;;;;0.70;0.70;;;;;;;17.48;100.00;-21156.00;5051922;28;20505;-71
2021/08/07 02:06:35;;;;;;;0.80;0.70;;;;;;;17.41;100.00;-21154.22;5030555;28;20546;-71
2021/08/07 02:09:03;;;;;;;0.70;0.70;;;;;;;17.32;100.00;-21151.88;5039482;28;20896;-71
2021/08/07 02:11:42;;;;;;;0.70;0.63;;;;;;;17.18;100.00;-21148.03;5035275;28;20456;-71
2021/08/07 02:14:15;;;;;;;0.70;0.70;;;;;;;16.94;100.00;-21141.44;5041232;28;20938;-71
2021/08/07 02:16:45;;;;;;;0.80;0.80;;;;;;;16.68;100.00;-21134.59;5032442;28;20923;-71
2021/08/07 02:19:15;;;;;;;0.80;0.70;;;;;;;16.51;100.00;-21129.91;5032609;28;20864;-71
2021/08/07 02:21:44;;;;;;;0.80;0.80;;;;;;;16.36;100.00;-21126.06;5042424;28;20488;-71
2021/08/07 02:24:14;;;;;;;0.73;0.63;;;;;;;16.21;100.00;-21121.81;5052335;28;20464;-71
2021/08/07 02:26:47;;;;;;;0.70;0.70;;;;;;;16.08;100.00;-20853.72;5052100;28;20808;-71
2021/08/07 02:29:16;;;;;;;0.80;0.77;;;;;;;16.03;100.00;-18190.97;5051836;28;20475;-71
2021/08/07 02:31:56;;;;;;;0.80;0.80;;;;;;;16.06;100.00;-13826.88;5043371;28;20452;-71
2021/08/07 02:34:26;;;;;;;0.70;0.70;;;;;;;15.94;100.00;-8854.47;5032059;28;20471;-71
2021/08/07 02:36:56;;;;;;;0.70;0.60;;;;;;;15.82;100.00;-1923.34;5032440;28;20458;-71
2021/08/07 02:39:30;;;;;;;0.80;0.80;;;;;;;15.68;100.00;7965.47;5031968;28;20521;-71
2021/08/07 02:42:00;;;;;;;0.80;0.77;;;;;;;15.65;100.00;19066.63;5031993;28;20448;-71
2021/08/07 02:44:35;;;;;;;0.70;0.70;;;;;;;15.73;100.00;31548.97;5032029;28;20463;-71
2021/08/07 02:47:03;;;;;;;0.70;0.60;;;;;;;15.69;100.00;42358.16;5033640;28;20440;-71
2021/08/07 02:49:33;;;;;;;0.80;0.70;;;;;;;15.80;100.00;50118.75;5015346;28;20478;-71
2021/08/07 02:52:02;;;;;;;0.80;0.80;;;;;;;15.84;100.00;55741.53;5044382;28;20962;-71
2021/08/07 02:54:31;;;;;;;0.80;0.70;;;;;;;15.90;100.00;58726.66;5035483;28;20471;-71
2021/08/07 02:57:00;;;;;;;0.70;0.70;;;;;;;15.97;100.00;60721.19;5035102;28;20447;-71
2021/08/07 02:59:29;;;;;;;0.80;0.70;;;;;;;15.96;100.00;62045.94;5035546;28;20871;-71
2021/08/07 03:01:59;;;;;;;0.70;0.70;;;;;;;15.95;100.00;63371.72;5026291;28;20450;-71
2021/08/07 03:04:31;;;;;;;0.70;0.60;;;;;;;15.91;100.00;64362.84;5031617;28;20841;-71
2021/08/07 03:06:59;;;;;;;0.80;0.70;;;;;;;15.91;100.00;65358.16;5031846;28;20488;-71
2021/08/07 03:09:27;;;;;;;0.80;0.80;;;;;;;16.02;100.00;65369.66;5031405;28;20519;-71
2021/08/07 03:11:56;;;;;;;0.70;0.70;;;;;;;16.00;100.00;66031.13;5015586;28;20458;-71
2021/08/07 03:14:23;;;;;;;0.83;0.83;;;;;;;15.96;100.00;66026.50;5031873;28;20435;-71
2021/08/07 03:16:52;;;;;;;0.80;0.70;;;;;;;16.01;100.00;66364.25;5034012;28;20531;-71
2021/08/07 03:19:26;;;;;;;0.80;0.80;;;;;;;16.12;100.00;66045.59;5037521;28;20427;-71
2021/08/07 03:21:57;;;;;;;0.70;0.60;;;;;;;16.20;100.00;65722.28;5031710;28;20453;-71
2021/08/07 03:24:26;;;;;;;0.80;0.70;;;;;;;16.06;100.00;65374.22;5055438;28;20477;-71
2021/08/07 03:26:55;;;;;;;0.70;0.70;;;;;;;16.08;100.00;65377.09;5055342;28;20535;-71
2021/08/07 03:29:23;;;;;;;0.80;0.80;;;;;;;16.11;100.00;65048.63;5039057;28;20481;-71
2021/08/07 03:31:59;;;;;;;0.70;0.70;;;;;;;16.19;100.00;64725.81;5046482;28;20453;-71
2021/08/07 03:34:38;;;;;;;0.80;0.80;;;;;;;16.24;100.00;64399.03;5035155;28;20436;-71
2021/08/07 03:37:06;;;;;;;0.70;0.60;;;;;;;16.31;100.00;63411.28;5035041;28;20448;-71
2021/08/07 03:39:41;;;;;;;0.70;0.70;;;;;;;16.46;100.00;63094.97;5035403;28;20523;-73
2021/08/07 03:42:09;;;;;;;0.70;0.70;;;;;;;16.56;100.00;61778.56;5035523;28;20442;-72
2021/08/07 03:44:37;;;;;;;0.70;0.70;;;;;;;16.62;100.00;59794.59;5035254;28;20431;-72
2021/08/07 03:47:06;;;;;;;0.70;0.70;;;;;;;16.68;100.00;58142.91;5035159;28;20447;-72
2021/08/07 03:49:33;;;;;;;0.80;0.80;;;;;;;16.64;100.00;55819.59;5034914;28;20476;-72
2021/08/07 03:52:03;;;;;;;0.80;0.80;;;;;;;16.60;100.00;53828.69;5048319;28;20454;-72
2021/08/07 03:54:30;;;;;;;0.70;0.60;;;;;;;16.65;100.00;52177.97;5054870;28;20495;-72
2021/08/07 03:57:00;;;;;;;0.80;0.70;;;;;;;16.65;100.00;50193.44;5054859;28;20458;-72
2021/08/07 03:59:31;;;;;;;0.80;0.70;;;;;;;16.63;100.00;48207.47;5055469;28;20440;-72
2021/08/07 04:02:00;;;;;;;0.77;0.70;;;;;;;16.70;100.00;46891.09;5036766;28;20998;-72
2021/08/07 04:04:29;;;;;;;0.70;0.63;;;;;;;16.67;100.00;44185.19;5054795;28;20981;-73
2021/08/07 04:06:57;;;;;;;0.70;0.60;;;;;;;16.77;100.00;41943.59;5054209;28;20855;-73
2021/08/07 04:09:34;;;;;;;0.70;0.60;;;;;;;16.82;100.00;39138.31;5051252;28;20524;-73
2021/08/07 04:12:04;;;;;;;0.70;0.60;;;;;;;16.79;100.00;36911.69;5032408;28;20510;-73
2021/08/07 04:14:38;;;;;;;0.80;0.80;;;;;;;16.84;100.00;33842.25;5018446;28;20439;-73
2021/08/07 04:17:10;;;;;;;0.70;0.70;;;;;;;16.95;100.00;29686.50;5018604;28;20453;-72
2021/08/07 04:19:38;;;;;;;0.70;0.60;;;;;;;17.06;100.00;23823.28;5018153;28;20445;-73
2021/08/07 04:22:38;;;;;;;0.80;0.70;;;;;;;17.10;100.00;15561.91;5033686;28;20812;-72
2021/08/07 04:25:17;;;;;;;0.70;0.60;;;;;;;17.03;100.00;8277.78;5039870;28;21031;-72
2021/08/07 04:27:45;;;;;;;0.73;0.70;;;;;;;17.06;100.00;4147.28;5053738;28;20444;-72
2021/08/07 04:30:14;;;;;;;0.70;0.70;;;;;;;17.02;100.00;-292.13;5038153;28;20483;-72
2021/08/07 04:32:46;;;;;;;0.70;0.60;;;;;;;17.10;100.00;-3941.63;5023057;28;20450;-73
2021/08/07 04:35:14;;;;;;;0.80;0.70;;;;;;;17.14;100.00;-7356.53;5033799;28;20505;-72
2021/08/07 04:37:46;;;;;;;0.70;0.60;;;;;;;17.13;100.00;-9767.38;5034295;28;20502;-72
2021/08/07 04:40:18;;;;;;;0.70;0.63;;;;;;;17.17;100.00;-11387.63;5018583;28;20450;-73
2021/08/07 04:42:46;;;;;;;0.80;0.73;;;;;;;17.26;100.00;-13520.56;5033920;28;20429;-72
2021/08/07 04:45:15;;;;;;;0.70;0.60;;;;;;;17.25;100.00;-15828.25;5017910;28;20473;-72
2021/08/07 04:47:55;;;;;;;0.70;0.70;;;;;;;17.28;100.00;-17821.13;5034067;28;20429;-72
2021/08/07 04:50:29;;;;;;;0.70;0.60;;;;;;;17.39;100.00;-19303.22;5033955;28;20587;-73
2021/08/07 04:52:58;;;;;;;0.70;0.70;;;;;;;17.38;100.00;-20498.38;5017585;28;20880;-73
2021/08/07 04:55:27;;;;;;;0.77;0.67;;;;;;;17.43;100.00;-20947.63;5033842;28;20474;-72
2021/08/07 04:57:57;;;;;;;0.70;0.70;;;;;;;17.40;100.00;-21153.94;5035186;28;20442;-73
2021/08/07 05:00:28;;;;;;;0.70;0.60;;;;;;;17.43;100.00;-21154.63;5033434;28;20439;-73
2021/08/07 05:02:56;;;;;;;0.70;0.60;;;;;;;17.35;100.00;-21152.69;5033394;28;20537;-73
2021/08/07 05:05:24;;;;;;;0.70;0.60;;;;;;;17.35;100.00;-21152.69;5017308;28;20594;-72
2021/08/07 05:07:52;;;;;;;0.80;0.70;;;;;;;17.43;100.00;-21154.75;5017266;28;20517;-72
2021/08/07 05:10:23;;;;;;;0.80;0.70;;;;;;;17.37;100.00;-21153.25;5033437;28;20479;-73
2021/08/07 05:12:53;;;;;;;0.70;0.60;;;;;;;17.46;100.00;-21155.59;5033616;28;20454;-72
2021/08/07 05:15:21;;;;;;;0.80;0.70;;;;;;;17.47;100.00;-21155.84;5033408;28;20457;-73
2021/08/07 05:17:50;;;;;;;0.70;0.60;;;;;;;17.68;100.00;-21161.47;5016601;28;20452;-73
2021/08/07 05:20:19;;;;;;;0.80;0.70;;;;;;;17.71;100.00;-21162.28;5033318;28;20448;-73
2021/08/07 05:22:47;;;;;;;0.77;0.70;;;;;;;17.75;100.00;-21163.41;5033512;28;20463;-73
2021/08/07 05:25:15;;;;;;;0.80;0.70;;;;;;;17.78;100.00;-21164.22;5019397;28;20471;-73
2021/08/07 05:27:44;;;;;;;0.73;0.70;;;;;;;17.77;100.00;-21163.81;5016806;28;20530;-73
2021/08/07 05:30:14;;;;;;;0.70;0.70;;;;;;;17.84;100.00;-21165.88;5001160;28;20472;-72
2021/08/07 05:32:45;;;;;;;0.70;0.70;;;;;;;17.94;100.00;-21168.34;5048025;28;20460;-73
2021/08/07 05:35:17;;;;;;;0.77;0.70;;;;;;;18.02;100.00;-21170.53;5052993;28;20448;-72
2021/08/07 05:37:47;;;;;;;0.80;0.80;;;;;;;18.04;100.00;-21171.22;5052623;28;20475;-72
2021/08/07 05:40:15;;;;;;;0.70;0.70;;;;;;;18.06;100.00;-21171.63;5036193;28;20832;-73
2021/08/07 05:42:48;;;;;;;0.80;0.70;;;;;;;18.30;100.00;-21178.19;5025251;28;20485;-72
2021/08/07 05:45:18;;;;;;;0.80;0.70;;;;;;;18.38;100.00;-21180.25;5016436;28;20868;-72
2021/08/07 05:47:45;;;;;;;0.80;0.70;;;;;;;18.38;100.00;-21180.13;5032698;28;20445;-72
2021/08/07 05:50:14;;;;;;;0.80;0.70;;;;;;;18.37;100.00;-21179.84;5033949;28;20569;-73
2021/08/07 05:52:45;;;;;;;0.70;0.70;;;;;;;18.52;100.00;-21184.09;5051384;28;20485;-72
2021/08/07 05:55:15;;;;;;;0.80;0.70;;;;;;;18.49;100.00;-21183.25;5036250;28;20443;-72
2021/08/07 05:57:42;;;;;;;0.80;0.70;;;;;;;18.73;100.00;-21189.69;5052613;28;20497;-72
2021/08/07 06:00:12;;;;;;;0.70;0.60;;;;;;;18.58;100.00;-21185.59;5043129;28;20440;-73
2021/08/07 06:02:51;;;;;;;0.70;0.70;;;;;;;18.72;100.00;-21189.44;5026300;28;20845;-73
2021/08/07 06:05:33;;;;;;;0.70;0.70;;;;;;;18.81;100.00;-21191.88;5037836;28;20476;-73
2021/08/07 06:08:05;;;;;;;0.70;0.70;;;;;;;18.67;100.00;-21188.06;5037285;28;20472;-72
2021/08/07 06:10:35;;;;;;;0.70;0.70;;;;;;;18.61;100.00;-21186.28;5036099;28;20482;-72
2021/08/07 06:13:05;;;;;;;0.70;0.70;;;;;;;18.53;100.00;-21184.34;5037567;28;20453;-72
2021/08/07 06:15:33;;;;;;;0.80;0.70;;;;;;;18.59;100.00;-21186.00;5016568;28;20937;-73
2021/08/07 06:18:03;;;;;;;0.80;0.70;;;;;;;18.75;100.00;-21190.09;5016153;28;20440;-72
2021/08/07 06:20:33;;;;;;;0.80;0.70;;;;;;;18.80;100.00;-21191.47;5016119;28;20438;-72
2021/08/07 06:23:01;;;;;;;0.70;0.70;;;;;;;18.83;100.00;-21192.44;5035749;28;20499;-73
2021/08/07 06:25:29;;;;;;;0.77;0.70;;;;;;;19.04;100.00;-21198.03;5052272;28;20455;-72
2021/08/07 06:27:58;;;;;;;0.80;0.70;;;;;;;18.96;100.00;-21195.72;5019455;28;20450;-73
2021/08/07 06:30:28;;;;;;;0.77;0.70;;;;;;;18.92;100.00;-21194.75;5035627;28;20450;-72
2021/08/07 06:33:03;;;;;;;0.80;0.77;;;;;;;19.02;100.00;-21197.50;5051858;28;20444;-72
2021/08/07 06:35:31;;;;;;;0.80;0.70;;;;;;;19.09;100.00;-21199.28;5051803;28;20447;-73
2021/08/07 06:37:59;;;;;;;0.70;0.60;;;;;;;19.02;100.00;-21197.34;5035058;28;20471;-73
2021/08/07 06:40:28;;;;;;;0.70;0.60;;;;;;;19.13;100.00;-21200.38;5052552;28;20439;-73
2021/08/07 06:42:56;;;;;;;0.70;0.70;;;;;;;19.07;100.00;-21198.72;5022640;28;20976;-73
2021/08/07 06:45:40;;;;;;;0.70;0.70;;;;;;;19.21;100.00;-21202.56;5031977;28;20457;-72
2021/08/07 06:48:15;;;;;;;0.70;0.60;;;;;;;19.38;100.00;-21206.94;5031561;28;20531;-73
2021/08/07 06:50:43;;;;;;;0.70;0.70;;;;;;;19.50;100.00;-21210.22;5033644;28;20460;-73
2021/08/07 06:53:18;;;;;;;0.70;0.70;;;;;;;19.50;100.00;-21210.34;5036229;28;20947;-73
2021/08/07 06:55:46;;;;;;;0.80;0.70;;;;;;;19.52;100.00;-21210.75;5035844;28;20448;-74
2021/08/07 06:58:14;;;;;;;0.80;0.70;;;;;;;19.56;100.00;-21211.84;5051489;28;20974;-72
2021/08/07 07:00:43;;;;;;;0.70;0.70;;;;;;;19.86;100.00;-21219.94;5050933;28;20433;-72
2021/08/07 07:03:11;;;;;;;0.80;0.70;;;;;;;19.83;100.00;-21218.97;5051813;28;20439;-73
2021/08/07 07:05:42;;;;;;;0.80;0.70;;;;;;;19.89;100.00;-21220.63;5052558;28;20961;-73
2021/08/07 07:08:14;;;;;;;0.70;0.60;;;;;;;19.83;100.00;-21219.09;5051716;28;20480;-73
2021/08/07 07:10:42;;;;;;;0.80;0.60;;;;;;;19.78;100.00;-21217.88;5035267;28;20475;-72
2021/08/07 07:13:33;;;;;;;0.70;0.60;;;;;;;20.04;100.00;-21224.72;5034930;28;20461;-73
2021/08/07 07:16:04;;;;;;;0.70;0.70;;;;;;;20.00;100.00;-21223.63;5031241;28;20548;-72
2021/08/07 07:18:55;;;;;;;0.80;0.70;;;;;;;20.39;100.00;-21234.00;5034316;28;20415;-73
2021/08/07 07:21:25;;;;;;;0.80;0.70;;;;;;;20.58;100.00;-21239.19;5038732;28;20430;-73
2021/08/07 07:23:53;;;;;;;0.80;0.70;;;;;;;20.64;100.00;-21240.81;5034737;28;21025;-72
2021/08/07 07:26:21;;;;;;;0.70;0.60;;;;;;;20.23;100.00;-21229.75;5030108;28;20511;-73
2021/08/07 07:28:50;;;;;;;0.70;0.60;;;;;;;20.35;100.00;-21233.03;5015813;28;20468;-74
2021/08/07 07:31:18;;;;;;;0.70;0.63;;;;;;;20.69;100.00;-21242.19;5031646;28;20464;-74
2021/08/07 07:33:48;;;;;;;0.70;0.63;;;;;;;20.67;100.00;-21241.50;5015187;28;20416;-73
2021/08/07 07:36:16;;;;;;;0.80;0.70;;;;;;;20.73;100.00;-21243.28;5031140;28;20498;-73
2021/08/07 07:38:47;;;;;;;0.80;0.67;;;;;;;20.92;100.00;-21248.34;5031470;28;20935;-73
2021/08/07 07:41:16;;;;;;;0.80;0.70;;;;;;;20.78;100.00;-21244.38;5031417;28;20441;-73
2021/08/07 07:44:06;;;;;;;0.70;0.60;;;;;;;20.75;100.00;-21243.69;5031615;28;20426;-73
2021/08/07 07:46:34;;;;;;;0.80;0.73;;;;;;;21.05;100.00;-21251.75;4999313;28;20867;-74
2021/08/07 07:49:05;;;;;;;0.70;0.70;;;;;;;21.12;100.00;-21253.66;5015425;28;20456;-73
2021/08/07 07:51:34;;;;;;;0.80;0.80;;;;;;;21.43;100.00;-21261.84;5023701;28;20475;-74
2021/08/07 07:54:05;;;;;;;0.70;0.60;;;;;;;21.53;100.00;-21264.44;5042347;28;20533;-74
2021/08/07 07:56:33;;;;;;;0.80;0.70;;;;;;;21.88;100.00;-21273.97;5029101;28;20480;-73
2021/08/07 07:59:01;;;;;;;0.73;0.67;;;;;;;21.66;100.00;-21268.13;5032182;28;20485;-73
2021/08/07 08:01:32;;;;;;;0.80;0.70;;;;;;;21.61;100.00;-21266.59;5033942;28;20454;-73
2021/08/07 08:04:01;;;;;;;0.77;0.67;;;;;;;21.82;100.00;-21272.34;5038900;28;20445;-73
2021/08/07 08:06:30;;;;;;;0.77;0.60;;;;;;;22.16;100.00;-21281.47;5034774;28;20911;-73
2021/08/07 08:08:59;;;;;;;0.70;0.60;;;;;;;22.26;100.00;-21284.06;5018300;28;20457;-73
2021/08/07 08:11:29;;;;;;;0.70;0.63;;;;;;;22.60;100.00;-21293.19;5035689;28;21100;-73
2021/08/07 08:13:57;;;;;;;0.70;0.60;;;;;;;22.97;100.00;-21302.97;5038317;28;20928;-72
2021/08/07 08:16:25;;;;;;;0.70;0.60;;;;;;;22.84;100.00;-21299.44;5038190;28;20787;-74
2021/08/07 08:18:53;;;;;;;0.70;0.60;;;;;;;23.10;100.00;-21306.38;5040262;28;20441;-73
2021/08/07 08:21:21;;;;;;;0.70;0.60;;;;;;;23.09;100.00;-21306.25;5041725;28;21009;-74
2021/08/07 08:23:49;;;;;;;0.70;0.60;;;;;;;22.87;100.00;-21300.38;5054497;28;20468;-73
2021/08/07 08:26:17;;;;;;;0.80;0.70;;;;;;;23.00;100.00;-21303.78;5054511;28;20479;-74
2021/08/07 08:28:46;;;;;;;0.70;0.63;;;;;;;23.35;100.00;-21313.19;5037495;28;20849;-73
2021/08/07 08:31:13;;;;;;;0.70;0.60;;;;;;;23.33;100.00;-21312.63;5054201;28;20995;-72
2021/08/07 08:34:03;;;;;;;0.70;0.60;;;;;;;23.13;100.00;-21307.34;5054607;28;20400;-74
2021/08/07 08:36:32;;;;;;;0.80;0.63;;;;;;;23.70;100.00;-21322.28;5037668;28;20964;-75
2021/08/07 08:39:00;;;;;;;0.70;0.60;;;;;;;23.50;100.00;-21317.13;5054144;28;20464;-73
2021/08/07 08:41:33;;;;;;;0.70;0.60;;;;;;;23.86;100.00;-21326.63;5036664;28;20471;-73
2021/08/07 08:44:03;;;;;;;0.70;0.60;;;;;;;23.28;100.00;-21311.13;5017625;28;20803;-74
2021/08/07 08:46:31;;;;;;;0.70;0.60;;;;;;;22.87;100.00;-21300.25;5034008;28;20960;-73
2021/08/07 08:49:00;;;;;;;0.80;0.70;;;;;;;23.08;100.00;-21305.84;5034392;28;20445;-73
2021/08/07 08:51:29;;;;;;;0.80;0.70;;;;;;;22.60;100.00;-21293.19;5041751;28;20471;-72
2021/08/07 08:54:02;;;;;;;0.80;0.70;;;;;;;22.93;100.00;-21301.88;5038212;28;20460;-73
2021/08/07 08:56:34;;;;;;;0.70;0.60;;;;;;;22.89;100.00;-21300.94;5037605;28;20444;-72
2021/08/07 08:59:07;;;;;;;0.80;0.70;;;;;;;22.87;100.00;-21300.38;5028991;28;20455;-73
2021/08/07 09:01:36;;;;;;;0.77;0.60;;;;;;;22.67;100.00;-21295.09;5033818;28;20498;-73
2021/08/07 09:04:05;;;;;;;0.70;0.60;;;;;;;22.99;100.00;-21303.38;5016974;28;20453;-73
2021/08/07 09:06:34;;;;;;;0.70;0.60;;;;;;;23.14;100.00;-21307.59;5033515;28;20440;-74
2021/08/07 09:09:05;;;;;;;0.80;0.70;;;;;;;23.08;100.00;-21305.84;5033661;28;20469;-73
2021/08/07 09:11:39;;;;;;;0.70;0.60;;;;;;;23.03;100.00;-21304.47;5040946;28;20452;-74
2021/08/07 09:14:29;;;;;;;0.70;0.70;;;;;;;23.20;100.00;-21308.97;5038548;28;20463;-73
2021/08/07 09:17:15;;;;;;;0.80;0.60;;;;;;;23.39;100.00;-21314.13;5053491;28;20505;-72
2021/08/07 09:19:54;;;;;;;0.70;0.60;;;;;;;23.27;100.00;-21310.88;5037949;28;20940;-73
2021/08/07 09:22:25;;;;;;;0.80;0.63;;;;;;;23.11;100.00;-21306.78;5038079;28;20452;-74
2021/08/07 09:25:10;;;;;;;0.80;0.60;;;;;;;23.00;100.00;-21303.78;5033337;28;20449;-73
2021/08/07 09:27:41;;;;;;;0.70;0.60;;;;;;;22.97;100.00;-21302.97;5017707;28;20449;-74
2021/08/07 09:30:29;;;;;;;0.70;0.60;;;;;;;23.14;100.00;-21307.59;5034872;28;20867;-74
2021/08/07 09:33:07;;;;;;;0.70;0.60;;;;;;;23.66;100.00;-21321.19;5032820;28;20440;-74
2021/08/07 09:35:39;;;;;;;0.70;0.60;;;;;;;23.66;100.00;-21321.19;5017434;28;20440;-73
2021/08/07 09:38:18;;;;;;;0.80;0.70;;;;;;;23.47;100.00;-21316.31;5032876;28;20563;-74
2021/08/07 09:40:58;;;;;;;0.70;0.60;;;;;;;23.65;100.00;-21321.06;5018007;28;20448;-73
2021/08/07 09:43:35;;;;;;;0.70;0.60;;;;;;;23.45;100.00;-21315.63;5033605;28;20449;-73
2021/08/07 09:46:06;;;;;;;1.10;0.80;;;;;;;23.58;100.00;-21319.28;5016949;28;20887;-73
2021/08/07 09:48:41;;;;;;;0.80;0.70;;;;;;;23.71;100.00;-21322.56;5036264;28;21013;-74
2021/08/07 09:51:24;;;;;;;0.80;0.70;;;;;;;24.16;100.00;-21334.53;5031239;28;20843;-74
2021/08/07 09:54:03;;;;;;;0.70;0.60;;;;;;;24.31;100.00;-21338.72;5024166;28;20478;-74
2021/08/07 09:56:42;;;;;;;0.70;0.60;;;;;;;24.43;100.00;-21341.72;5036526;28;20978;-75
2021/08/07 09:59:11;;;;;;;0.70;0.60;;;;;;;24.67;100.00;-21348.09;5052575;28;20428;-72
2021/08/07 10:01:43;;;;;;;0.70;0.50;;;;;;;23.89;100.00;-21327.44;5036699;28;20908;-71
2021/08/07 10:04:14;;;;;;;0.80;0.60;;;;;;;24.13;100.00;-21333.69;5052282;28;20565;-74
2021/08/07 10:06:47;;;;;;;0.70;0.50;;;;;;;22.98;100.00;-21303.25;5036464;28;20625;-74
2021/08/07 10:09:31;;;;;;;0.80;0.70;;;;;;;23.23;100.00;-21309.91;5052130;28;20472;-72
2021/08/07 10:12:03;;;;;;;0.70;0.60;;;;;;;22.59;100.00;-21292.91;5036939;28;20562;-73
2021/08/07 10:14:35;;;;;;;0.70;0.60;;;;;;;22.87;100.00;-21300.25;5036589;28;20432;-73
2021/08/07 10:17:06;;;;;;;0.70;0.60;;;;;;;22.76;100.00;-21297.41;5036122;28;20446;-74
2021/08/07 10:19:37;;;;;;;0.80;0.70;;;;;;;23.42;100.00;-21314.94;5035625;28;20456;-73
2021/08/07 10:22:06;;;;;;;0.77;0.67;;;;;;;24.43;100.00;-21341.84;5038741;28;20531;-74
2021/08/07 10:24:44;;;;;;;0.70;0.60;;;;;;;24.94;100.00;-21355.41;5031309;28;20464;-73
2021/08/07 10:27:17;;;;;;;0.70;0.60;;;;;;;25.71;100.00;-21375.91;5016099;28;20464;-73
2021/08/07 10:29:47;;;;;;;0.80;0.60;;;;;;;24.96;100.00;-21355.97;5031935;28;20437;-74
2021/08/07 10:32:17;;;;;;;0.70;0.50;;;;;;;24.87;100.00;-21353.53;5032332;28;20884;-73
2021/08/07 10:34:50;;;;;;;0.70;0.50;;;;;;;24.15;100.00;-21334.25;5032099;28;20449;-74
2021/08/07 10:37:23;;;;;;;0.70;0.60;;;;;;;23.95;100.00;-21329.09;5031983;28;20435;-73
2021/08/07 10:39:52;;;;;;;0.70;0.53;;;;;;;23.44;100.00;-21315.34;5032107;28;20448;-73
2021/08/07 10:42:21;;;;;;;0.77;0.60;;;;;;;23.29;100.00;-21311.53;5031926;28;20429;-73
2021/08/07 10:44:51;;;;;;;0.80;0.60;;;;;;;23.06;100.00;-21305.44;5016071;28;20479;-72
2021/08/07 10:47:40;;;;;;;0.80;0.60;;;;;;;22.27;100.00;-21284.19;5032054;28;20867;-72
2021/08/07 10:50:36;;;;;;;0.80;0.70;;;;;;;22.35;100.00;-21286.50;5014899;28;20464;-73
2021/08/07 10:53:37;;;;;;;0.70;0.60;;;;;;;22.40;100.00;-21287.72;5001596;28;20502;-73
2021/08/07 10:56:07;;;;;;;0.70;0.60;;;;;;;22.45;100.00;-21288.97;5032380;28;20846;-72
2021/08/07 10:58:40;;;;;;;0.80;0.70;;;;;;;22.31;100.00;-21285.28;5032013;28;20429;-71
2021/08/07 11:01:41;;;;;;;0.77;0.60;;;;;;;21.88;100.00;-21273.97;5015237;28;20485;-72
2021/08/07 11:04:23;;;;;;;0.80;0.70;;;;;;;21.76;100.00;-21270.56;4975191;28;20448;-73
2021/08/07 11:07:03;;;;;;;0.80;0.60;;;;;;;21.27;100.00;-21257.59;4975522;28;20454;-72
2021/08/07 11:09:36;;;;;;;0.80;0.70;;;;;;;20.42;100.00;-21234.81;5031314;28;20477;-72
2021/08/07 11:12:29;;;;;;;0.80;0.70;;;;;;;20.02;100.00;-21224.16;5046049;28;20881;-72
2021/08/07 11:15:00;;;;;;;0.80;0.70;;;;;;;19.73;100.00;-21216.50;5032047;28;20396;-71
2021/08/07 11:17:48;;;;;;;0.80;0.70;;;;;;;20.17;100.00;-21228.25;5031552;28;20425;-72
2021/08/07 11:20:43;;;;;;;0.80;0.60;;;;;;;20.26;100.00;-21230.72;5031472;28;20400;-72
2021/08/07 11:23:21;;;;;;;0.80;0.60;;;;;;;20.82;100.00;-21245.47;5031886;28;20415;-72
2021/08/07 11:26:00;;;;;;;0.70;0.60;;;;;;;20.85;100.00;-21246.28;5031890;28;20384;-72
2021/08/07 11:28:28;;;;;;;0.70;0.67;;;;;;;20.96;100.00;-21249.28;5014507;28;21013;-71
2021/08/07 11:31:18;;;;;;;0.80;0.70;;;;;;;21.43;100.00;-21261.84;5031921;28;20424;-71
2021/08/07 11:34:07;;;;;;;0.80;0.70;;;;;;;22.21;100.00;-21282.56;5036966;28;20425;-71
2021/08/07 11:37:19;;;;;;;0.80;0.70;;;;;;;22.79;100.00;-21298.06;5053332;28;20462;-71
2021/08/07 11:40:19;;;;;;;0.80;0.60;;;;;;;23.17;100.00;-21308.28;5055298;28;20403;-72
2021/08/07 11:42:49;;;;;;;0.73;0.60;;;;;;;22.35;100.00;-21286.38;4977268;28;20454;-72
2021/08/07 11:45:22;;;;;;;0.70;0.60;;;;;;;21.99;100.00;-21276.69;5040013;28;20439;-72